Terminal Aerodrome Forecast
Issued by NWS North Platte, NE

Home | Current Version | Previous Version | Text Only | Print | Product List | Glossary On
Versions: 1 2 3 4 5 6 7 8 9 10 11 12 13 14 15 16 17 18 19 20 21 22 23 24 25 26 27 28 29 30 31 32
594
FTUS43 KLBF 131720
TAFVTN
TAF
KVTN 131720Z 1318/1418 18017G24KT P6SM OVC008
     FM132000 18017G24KT P6SM OVC015
     FM140000 18014G21KT P6SM OVC030
     FM140300 27015G24KT P6SM BKN015 OVC030 PROB30 1403/1409 5SM
      -SHSN
     FM140900 29012KT P6SM BKN030
     FM141400 29012KT P6SM SCT050 SCT250=

USA.gov is the U.S. government's official web portal to all federal, state and local government web resources and services.